Time;durP1;ratioP1;P1;durP2;ratioP2;P2;SDS_P1;SDS_P2;PMS_P1;PMS_P2;Temp;Humidity;BMP_temperature;BMP_pressure;BME280_temperature;BME280_humidity;BME280_pressure;Samples;Min_cycle;Max_cycle;Signal;HPM_P1;HPM_P2
2023/08/20 00:01:13;;;;;;;;;;;15.30;99.90;;;;;;5095529;28;19924;-63
2023/08/20 00:03:41;;;;;;;;;;;15.30;99.90;;;;;;5095236;28;20395;-64
2023/08/20 00:06:08;;;;;;;;;;;15.30;99.90;;;;;;5113992;28;19931;-64
2023/08/20 00:08:34;;;;;;;;;;;15.30;99.90;;;;;;5093715;28;19965;-64
2023/08/20 00:11:01;;;;;;;;;;;15.30;99.90;;;;;;5095058;28;20303;-63
2023/08/20 00:13:28;;;;;;;;;;;15.20;99.90;;;;;;5113895;28;19931;-63
2023/08/20 00:15:56;;;;;;;;;;;15.20;99.90;;;;;;5113573;28;19923;-63
2023/08/20 00:18:23;;;;;;;;;;;15.20;99.90;;;;;;5113271;28;20272;-63
2023/08/20 00:20:50;;;;;;;;;;;15.10;99.90;;;;;;5113268;28;20371;-63
2023/08/20 00:23:17;;;;;;;;;;;15.10;99.90;;;;;;5113824;28;20356;-63
2023/08/20 00:25:44;;;;;;;;;;;15.10;99.90;;;;;;5112946;28;20410;-63
2023/08/20 00:28:11;;;;;;;;;;;15.10;99.90;;;;;;5095526;28;19992;-62
2023/08/20 00:30:38;;;;;;;;;;;15.10;99.90;;;;;;5094839;28;20388;-63
2023/08/20 00:33:06;;;;;;;;;;;15.10;99.90;;;;;;5095547;28;19924;-63
2023/08/20 00:35:33;;;;;;;;;;;15.10;99.90;;;;;;5113242;28;19973;-63
2023/08/20 00:38:00;;;;;;;;;;;15.10;99.90;;;;;;5094625;28;20399;-63
2023/08/20 00:40:27;;;;;;;;;;;15.10;99.90;;;;;;5113402;28;20264;-63
2023/08/20 00:42:53;;;;;;;;;;;15.00;99.90;;;;;;5113355;28;20512;-63
2023/08/20 00:45:20;;;;;;;;;;;15.00;99.90;;;;;;5111977;28;20290;-64
2023/08/20 00:47:47;;;;;;;;;;;15.00;99.90;;;;;;5113277;28;20083;-63
2023/08/20 00:50:15;;;;;;;;;;;15.00;99.90;;;;;;5095047;28;19942;-63
2023/08/20 00:52:42;;;;;;;;;;;15.00;99.90;;;;;;5112440;28;19928;-63
2023/08/20 00:55:09;;;;;;;;;;;15.00;99.90;;;;;;5095109;28;19930;-63
2023/08/20 00:57:37;;;;;;;;;;;14.90;99.90;;;;;;5113196;28;19971;-64
2023/08/20 01:00:07;;;;;;;;;;;15.00;99.90;;;;;;5112639;28;19924;-63
2023/08/20 01:02:34;;;;;;;;;;;14.90;99.90;;;;;;5094620;28;20383;-63
2023/08/20 01:05:01;;;;;;;;;;;14.90;99.90;;;;;;5095042;28;19931;-62
2023/08/20 01:07:31;;;;;;;;;;;14.90;99.90;;;;;;5112251;28;19931;-62
2023/08/20 01:10:01;;;;;;;;;;;14.90;99.90;;;;;;5113177;28;19924;-62
2023/08/20 01:12:28;;;;;;;;;;;14.90;99.90;;;;;;5112847;28;19935;-62
2023/08/20 01:14:55;;;;;;;;;;;14.90;99.90;;;;;;5112203;28;19931;-63
2023/08/20 01:17:21;;;;;;;;;;;14.80;99.90;;;;;;5112707;28;19930;-63
2023/08/20 01:19:48;;;;;;;;;;;14.80;99.90;;;;;;5093844;28;19983;-63
2023/08/20 01:22:22;;;;;;;;;;;14.80;99.90;;;;;;5094405;28;19931;-63
2023/08/20 01:24:57;;;;;;;;;;;14.80;99.90;;;;;;5094918;28;19950;-63
2023/08/20 01:27:37;;;;;;;;;;;14.80;99.90;;;;;;5111988;28;19924;-63
2023/08/20 01:30:06;;;;;;;;;;;14.70;99.90;;;;;;5112901;28;19924;-63
2023/08/20 01:32:33;;;;;;;;;;;14.80;99.90;;;;;;5128831;28;19928;-63
2023/08/20 01:35:00;;;;;;;;;;;14.80;99.90;;;;;;5094144;28;20287;-63
2023/08/20 01:37:27;;;;;;;;;;;14.80;99.90;;;;;;5112647;28;19927;-63
2023/08/20 01:39:53;;;;;;;;;;;14.80;99.90;;;;;;5113006;28;19924;-63
2023/08/20 01:42:20;;;;;;;;;;;14.80;99.90;;;;;;5111804;28;20379;-63
2023/08/20 01:44:47;;;;;;;;;;;14.80;99.90;;;;;;5110588;28;19928;-63
2023/08/20 01:47:15;;;;;;;;;;;14.70;99.90;;;;;;5094607;28;20367;-63
2023/08/20 01:49:42;;;;;;;;;;;14.70;99.90;;;;;;5109680;28;20001;-62
2023/08/20 01:52:09;;;;;;;;;;;14.80;99.90;;;;;;5094212;28;20014;-63
2023/08/20 01:54:36;;;;;;;;;;;14.70;99.90;;;;;;5112439;28;19973;-63
2023/08/20 01:57:02;;;;;;;;;;;14.70;99.90;;;;;;5113027;28;19931;-62
2023/08/20 01:59:29;;;;;;;;;;;14.70;99.90;;;;;;5098256;28;19924;-62
2023/08/20 02:01:56;;;;;;;;;;;14.70;99.90;;;;;;5115405;28;19931;-63
2023/08/20 02:04:24;;;;;;;;;;;14.70;99.90;;;;;;5116135;28;19928;-63
2023/08/20 02:06:51;;;;;;;;;;;14.70;99.90;;;;;;5115883;28;20436;-63
2023/08/20 02:09:19;;;;;;;;;;;14.70;99.90;;;;;;5115461;28;19931;-64
2023/08/20 02:11:46;;;;;;;;;;;14.70;99.90;;;;;;5116009;28;19949;-63
2023/08/20 02:14:12;;;;;;;;;;;14.70;99.90;;;;;;5116211;28;19928;-63
2023/08/20 02:16:39;;;;;;;;;;;14.60;99.90;;;;;;5114721;28;19934;-63
2023/08/20 02:19:06;;;;;;;;;;;14.60;99.90;;;;;;5097517;28;19927;-63
2023/08/20 02:21:34;;;;;;;;;;;14.60;99.90;;;;;;5097514;28;19924;-63
2023/08/20 02:24:01;;;;;;;;;;;14.60;99.90;;;;;;5115012;28;20372;-63
2023/08/20 02:26:28;;;;;;;;;;;14.60;99.90;;;;;;5097938;28;19928;-62
2023/08/20 02:28:54;;;;;;;;;;;14.60;99.90;;;;;;5097636;28;19939;-62
2023/08/20 02:31:21;;;;;;;;;;;14.60;99.90;;;;;;5097180;28;20375;-63
2023/08/20 02:33:48;;;;;;;;;;;14.60;99.90;;;;;;5115781;28;19928;-63
2023/08/20 02:36:15;;;;;;;;;;;14.60;99.90;;;;;;5097718;28;19931;-63
2023/08/20 02:38:43;;;;;;;;;;;14.60;99.90;;;;;;5113906;28;19931;-63
2023/08/20 02:41:09;;;;;;;;;;;14.60;99.90;;;;;;5115784;28;19930;-63
2023/08/20 02:43:36;;;;;;;;;;;14.50;99.90;;;;;;5115315;28;20396;-63
2023/08/20 02:46:03;;;;;;;;;;;14.50;99.90;;;;;;5114812;28;19931;-63
2023/08/20 02:48:30;;;;;;;;;;;14.50;99.90;;;;;;5114534;28;19939;-62
2023/08/20 02:50:57;;;;;;;;;;;14.50;99.90;;;;;;5115452;28;19967;-63
2023/08/20 02:53:24;;;;;;;;;;;14.60;99.90;;;;;;5114601;28;19973;-63
2023/08/20 02:55:52;;;;;;;;;;;14.60;99.90;;;;;;5115258;28;20383;-62
2023/08/20 02:58:18;;;;;;;;;;;14.60;99.90;;;;;;5096457;28;19977;-62
2023/08/20 03:00:45;;;;;;;;;;;14.60;99.90;;;;;;5115434;28;20286;-62
2023/08/20 03:03:13;;;;;;;;;;;14.60;99.90;;;;;;5114877;28;19924;-63
2023/08/20 03:05:39;;;;;;;;;;;14.60;99.90;;;;;;5096515;28;19928;-63
2023/08/20 03:08:07;;;;;;;;;;;14.60;99.90;;;;;;5114285;28;20299;-63
2023/08/20 03:10:35;;;;;;;;;;;14.60;99.90;;;;;;5096981;28;20428;-63
2023/08/20 03:13:03;;;;;;;;;;;14.60;99.90;;;;;;5114459;28;19973;-63
2023/08/20 03:15:30;;;;;;;;;;;14.60;99.90;;;;;;5114849;28;19976;-63
2023/08/20 03:17:57;;;;;;;;;;;14.60;99.90;;;;;;5096799;28;20268;-64
2023/08/20 03:20:24;;;;;;;;;;;14.50;99.90;;;;;;5096035;28;19974;-62
2023/08/20 03:22:51;;;;;;;;;;;14.50;99.90;;;;;;5114562;28;19924;-62
2023/08/20 03:25:17;;;;;;;;;;;14.50;99.90;;;;;;5094570;28;19938;-63
2023/08/20 03:27:44;;;;;;;;;;;14.50;99.90;;;;;;5095561;28;19938;-63
2023/08/20 03:30:12;;;;;;;;;;;14.40;99.90;;;;;;5114612;28;19923;-63
2023/08/20 03:32:39;;;;;;;;;;;14.40;99.90;;;;;;5114304;28;19972;-64
2023/08/20 03:35:06;;;;;;;;;;;14.40;99.90;;;;;;5095901;28;20379;-64
2023/08/20 03:37:33;;;;;;;;;;;14.40;99.90;;;;;;5094197;28;19962;-64
2023/08/20 03:40:00;;;;;;;;;;;14.30;99.90;;;;;;5096094;28;20425;-64
2023/08/20 03:42:26;;;;;;;;;;;14.30;99.90;;;;;;5095514;28;20383;-63
2023/08/20 03:44:53;;;;;;;;;;;14.30;99.90;;;;;;5114397;28;19924;-62
2023/08/20 03:47:21;;;;;;;;;;;14.30;99.90;;;;;;5095868;28;20369;-63
2023/08/20 03:49:48;;;;;;;;;;;14.20;99.90;;;;;;5113887;28;19923;-63
2023/08/20 03:52:15;;;;;;;;;;;14.20;99.90;;;;;;5114201;28;19924;-63
2023/08/20 03:54:42;;;;;;;;;;;14.20;99.90;;;;;;5113540;28;20333;-63
2023/08/20 03:57:09;;;;;;;;;;;14.20;99.90;;;;;;5114018;28;19928;-63
2023/08/20 03:59:35;;;;;;;;;;;14.20;99.90;;;;;;5095673;28;19924;-63
2023/08/20 04:02:02;;;;;;;;;;;14.20;99.90;;;;;;5094893;28;19924;-63
2023/08/20 04:04:31;;;;;;;;;;;14.20;99.90;;;;;;5113692;28;20315;-63
2023/08/20 04:06:58;;;;;;;;;;;14.20;99.90;;;;;;5111657;28;20438;-64
2023/08/20 04:09:25;;;;;;;;;;;14.10;99.90;;;;;;5113112;28;20310;-63
2023/08/20 04:11:51;;;;;;;;;;;14.10;99.90;;;;;;5095694;28;19927;-63
2023/08/20 04:14:18;;;;;;;;;;;14.10;99.90;;;;;;5113671;28;19936;-63
2023/08/20 04:16:45;;;;;;;;;;;14.10;99.90;;;;;;5112908;28;19923;-63
2023/08/20 04:19:12;;;;;;;;;;;14.20;99.90;;;;;;5112666;28;19923;-62
2023/08/20 04:21:40;;;;;;;;;;;14.10;99.90;;;;;;5113569;28;19927;-63
2023/08/20 04:24:07;;;;;;;;;;;14.10;99.90;;;;;;5112864;28;20351;-63
2023/08/20 04:26:34;;;;;;;;;;;14.10;99.90;;;;;;5113470;28;20288;-63
2023/08/20 04:29:00;;;;;;;;;;;14.10;99.90;;;;;;5113185;28;19928;-62
2023/08/20 04:31:27;;;;;;;;;;;14.10;99.90;;;;;;5094830;28;19977;-63
2023/08/20 04:33:54;;;;;;;;;;;14.10;99.90;;;;;;5113571;28;19924;-63
2023/08/20 04:36:21;;;;;;;;;;;14.10;99.90;;;;;;5113214;28;19931;-63
2023/08/20 04:38:49;;;;;;;;;;;14.10;99.90;;;;;;5112739;28;19924;-63
2023/08/20 04:41:15;;;;;;;;;;;14.20;99.90;;;;;;5113310;28;19931;-64
2023/08/20 04:43:42;;;;;;;;;;;14.20;99.90;;;;;;5112367;28;20379;-64
2023/08/20 04:46:09;;;;;;;;;;;14.20;99.90;;;;;;5093165;28;19923;-63
2023/08/20 04:48:36;;;;;;;;;;;14.20;99.90;;;;;;5094546;28;19928;-63
2023/08/20 04:51:03;;;;;;;;;;;14.20;99.90;;;;;;5112741;28;20081;-63
2023/08/20 04:53:30;;;;;;;;;;;14.20;99.90;;;;;;5095004;28;19931;-63
2023/08/20 04:55:59;;;;;;;;;;;14.20;99.90;;;;;;5113437;28;19924;-63
2023/08/20 04:58:26;;;;;;;;;;;14.30;99.90;;;;;;5112206;28;19924;-63
2023/08/20 05:00:52;;;;;;;;;;;14.30;99.90;;;;;;5113193;28;19924;-62
2023/08/20 05:03:19;;;;;;;;;;;14.30;99.90;;;;;;5094859;28;19950;-62
2023/08/20 05:05:49;;;;;;;;;;;14.40;99.90;;;;;;5112429;28;19924;-63
2023/08/20 05:08:15;;;;;;;;;;;14.40;99.90;;;;;;5094758;28;20019;-62
2023/08/20 05:10:42;;;;;;;;;;;14.40;99.90;;;;;;5094895;28;19973;-63
2023/08/20 05:13:11;;;;;;;;;;;14.50;99.90;;;;;;5112251;28;19969;-63
2023/08/20 05:15:37;;;;;;;;;;;14.50;99.90;;;;;;5092830;28;19930;-62
2023/08/20 05:18:04;;;;;;;;;;;14.60;99.90;;;;;;5112994;28;19983;-63
2023/08/20 05:20:31;;;;;;;;;;;14.60;99.90;;;;;;5093790;28;20376;-64
2023/08/20 05:22:58;;;;;;;;;;;14.60;99.90;;;;;;5112704;28;20268;-63
2023/08/20 05:25:24;;;;;;;;;;;14.60;99.90;;;;;;5112628;28;19924;-64
2023/08/20 05:27:51;;;;;;;;;;;14.70;99.90;;;;;;5112021;28;19928;-64
2023/08/20 05:30:19;;;;;;;;;;;14.80;99.90;;;;;;5112761;28;19930;-64
2023/08/20 05:32:46;;;;;;;;;;;14.80;99.90;;;;;;5098612;28;19931;-63
2023/08/20 05:35:13;;;;;;;;;;;14.80;99.90;;;;;;5098043;28;20264;-63
2023/08/20 05:37:40;;;;;;;;;;;14.90;99.90;;;;;;5116733;28;19938;-63
2023/08/20 05:40:08;;;;;;;;;;;15.00;99.90;;;;;;5115867;28;19924;-63
2023/08/20 05:42:35;;;;;;;;;;;15.10;99.90;;;;;;5116676;28;19931;-62
2023/08/20 05:45:02;;;;;;;;;;;15.20;99.90;;;;;;5114476;28;19928;-63
2023/08/20 05:47:30;;;;;;;;;;;15.20;99.90;;;;;;5097561;28;19924;-63
2023/08/20 05:49:57;;;;;;;;;;;15.40;99.90;;;;;;5116281;28;19924;-62
2023/08/20 05:52:23;;;;;;;;;;;15.40;99.90;;;;;;5116334;28;20375;-63
2023/08/20 05:54:50;;;;;;;;;;;15.50;99.90;;;;;;5097843;28;19924;-64
2023/08/20 05:57:17;;;;;;;;;;;15.70;99.90;;;;;;5116663;28;19930;-63
2023/08/20 05:59:44;;;;;;;;;;;15.80;99.90;;;;;;5098223;28;19928;-63
2023/08/20 06:02:10;;;;;;;;;;;16.00;99.90;;;;;;5115704;28;19930;-64
2023/08/20 06:04:38;;;;;;;;;;;16.20;99.90;;;;;;5097629;28;19931;-64
2023/08/20 06:07:05;;;;;;;;;;;16.40;99.90;;;;;;5098225;28;19924;-64
2023/08/20 06:09:32;;;;;;;;;;;16.60;99.90;;;;;;5115268;28;19954;-63
2023/08/20 06:11:59;;;;;;;;;;;16.80;99.90;;;;;;5098129;28;19924;-63
2023/08/20 06:14:25;;;;;;;;;;;17.00;99.90;;;;;;5116098;28;20349;-64
2023/08/20 06:16:52;;;;;;;;;;;17.20;99.90;;;;;;5097341;28;19928;-64
2023/08/20 06:19:19;;;;;;;;;;;17.50;99.90;;;;;;5115778;28;20414;-64
2023/08/20 06:21:47;;;;;;;;;;;17.80;99.90;;;;;;5115900;28;19924;-64
2023/08/20 06:24:14;;;;;;;;;;;18.10;99.90;;;;;;5113085;28;19931;-64
2023/08/20 06:26:40;;;;;;;;;;;18.50;99.90;;;;;;5097791;28;19932;-63
2023/08/20 06:29:07;;;;;;;;;;;18.90;99.90;;;;;;5115987;28;19924;-64
2023/08/20 06:31:34;;;;;;;;;;;19.40;99.90;;;;;;5097288;28;19923;-64
2023/08/20 06:34:01;;;;;;;;;;;19.90;99.90;;;;;;5115781;28;19923;-65
2023/08/20 06:36:28;;;;;;;;;;;20.40;99.90;;;;;;5094747;28;20343;-64
2023/08/20 06:38:56;;;;;;;;;;;21.10;99.90;;;;;;5115413;28;20386;-64
2023/08/20 06:41:23;;;;;;;;;;;21.70;99.90;;;;;;5115644;28;20302;-64
2023/08/20 06:43:50;;;;;;;;;;;22.30;99.90;;;;;;5095926;28;19924;-64
2023/08/20 06:46:17;;;;;;;;;;;22.90;99.90;;;;;;5114863;28;19924;-65
2023/08/20 06:48:43;;;;;;;;;;;23.30;99.90;;;;;;5097102;28;19931;-64
2023/08/20 06:51:13;;;;;;;;;;;23.80;99.90;;;;;;5096752;28;19968;-63
2023/08/20 06:53:41;;;;;;;;;;;24.30;99.90;;;;;;5102393;27;20390;-65
2023/08/20 06:56:09;;;;;;;;;;;24.80;99.90;;;;;;5110818;28;19931;-64
2023/08/20 06:58:36;;;;;;;;;;;25.20;99.90;;;;;;5108214;28;19996;-64
2023/08/20 07:01:08;;;;;;;;;;;25.40;99.90;;;;;;5114128;28;19931;-64
2023/08/20 07:03:34;;;;;;;;;;;25.70;99.90;;;;;;5112651;28;19931;-64
2023/08/20 07:06:01;;;;;;;;;;;25.70;99.90;;;;;;5113159;28;19977;-64
2023/08/20 07:08:28;;;;;;;;;;;26.10;99.90;;;;;;5095298;28;19923;-64
2023/08/20 07:10:55;;;;;;;;;;;26.40;99.90;;;;;;5094072;28;20424;-64
2023/08/20 07:13:23;;;;;;;;;;;26.50;99.90;;;;;;5092656;28;20396;-64
2023/08/20 07:15:50;;;;;;;;;;;26.90;99.90;;;;;;5092175;28;19930;-63
2023/08/20 07:18:17;;;;;;;;;;;27.10;99.90;;;;;;5095493;28;19927;-63
2023/08/20 07:20:44;;;;;;;;;;;27.20;99.90;;;;;;5091273;28;19931;-64
2023/08/20 07:23:11;;;;;;;;;;;27.40;99.90;;;;;;5113646;28;20284;-64
2023/08/20 07:25:38;;;;;;;;;;;27.20;99.90;;;;;;5092577;28;20391;-64
2023/08/20 07:28:05;;;;;;;;;;;27.40;99.90;;;;;;5112873;28;20011;-65
2023/08/20 07:30:33;;;;;;;;;;;27.50;99.90;;;;;;5093222;28;19928;-64
2023/08/20 07:33:00;;;;;;;;;;;27.90;99.90;;;;;;5112722;28;20307;-65
2023/08/20 07:35:26;;;;;;;;;;;28.10;99.90;;;;;;5111802;28;19924;-64
2023/08/20 07:37:53;;;;;;;;;;;28.50;99.90;;;;;;5095690;28;19927;-64
2023/08/20 07:40:20;;;;;;;;;;;28.40;99.90;;;;;;5111844;28;19938;-64
2023/08/20 07:42:47;;;;;;;;;;;27.90;99.90;;;;;;5113012;28;19984;-64
2023/08/20 07:45:13;;;;;;;;;;;28.20;99.90;;;;;;5092837;28;19935;-64
2023/08/20 07:47:41;;;;;;;;;;;28.00;99.90;;;;;;5094506;28;19928;-63
2023/08/20 07:50:08;;;;;;;;;;;28.40;99.90;;;;;;5110519;28;19976;-63
2023/08/20 07:52:35;;;;;;;;;;;29.00;99.90;;;;;;5110495;28;19924;-64
2023/08/20 07:55:02;;;;;;;;;;;29.40;99.90;;;;;;5110904;28;20375;-64
2023/08/20 07:57:29;;;;;;;;;;;29.80;99.30;;;;;;5111214;27;19924;-65
2023/08/20 07:59:55;;;;;;;;;;;30.10;98.30;;;;;;5094794;28;19947;-65
2023/08/20 08:02:22;;;;;;;;;;;30.20;97.80;;;;;;5092917;28;20303;-63
2023/08/20 08:04:50;;;;;;;;;;;30.20;98.00;;;;;;5111495;28;19945;-64
2023/08/20 08:07:17;;;;;;;;;;;30.10;97.90;;;;;;5110327;28;19928;-65
2023/08/20 08:09:45;;;;;;;;;;;30.20;96.70;;;;;;5093048;28;20367;-64
2023/08/20 08:12:12;;;;;;;;;;;30.30;96.90;;;;;;5110698;28;19924;-64
2023/08/20 08:14:38;;;;;;;;;;;30.30;96.20;;;;;;5113181;28;20043;-65
2023/08/20 08:17:05;;;;;;;;;;;30.50;96.80;;;;;;5093215;28;19931;-65
2023/08/20 08:19:32;;;;;;;;;;;30.70;96.80;;;;;;5112614;28;19927;-65
2023/08/20 08:22:00;;;;;;;;;;;30.20;96.10;;;;;;5091072;28;19982;-66
2023/08/20 08:24:27;;;;;;;;;;;30.40;96.00;;;;;;5112402;28;19931;-65
2023/08/20 08:26:54;;;;;;;;;;;30.60;96.80;;;;;;5110699;28;19927;-65
2023/08/20 08:29:20;;;;;;;;;;;31.00;96.60;;;;;;5111778;28;19974;-65
2023/08/20 08:31:47;;;;;;;;;;;30.80;95.10;;;;;;5092666;28;20417;-65
2023/08/20 08:34:14;;;;;;;;;;;30.50;94.70;;;;;;5112464;28;19932;-65
2023/08/20 08:36:41;;;;;;;;;;;30.50;94.70;;;;;;5109780;28;19924;-66
2023/08/20 08:39:09;;;;;;;;;;;31.10;94.80;;;;;;5112405;28;19924;-65
2023/08/20 08:41:36;;;;;;;;;;;31.20;94.10;;;;;;5110657;28;20371;-65
2023/08/20 08:44:03;;;;;;;;;;;31.10;94.70;;;;;;5124862;27;20377;-64
2023/08/20 08:46:30;;;;;;;;;;;30.70;94.80;;;;;;5111750;28;19930;-64
2023/08/20 08:48:57;;;;;;;;;;;31.00;94.50;;;;;;5092132;28;19931;-65
2023/08/20 08:51:24;;;;;;;;;;;31.40;94.30;;;;;;5111596;28;20398;-64
2023/08/20 08:53:51;;;;;;;;;;;31.60;94.20;;;;;;5107780;28;19931;-64
2023/08/20 08:56:19;;;;;;;;;;;31.50;93.80;;;;;;5093093;28;20427;-64
2023/08/20 08:58:46;;;;;;;;;;;31.30;93.60;;;;;;5091529;28;19924;-64
2023/08/20 09:01:14;;;;;;;;;;;31.50;93.00;;;;;;5093886;28;19924;-65
2023/08/20 09:03:41;;;;;;;;;;;31.60;92.70;;;;;;5110555;28;19930;-65
2023/08/20 09:06:09;;;;;;;;;;;31.50;92.60;;;;;;5114416;28;20379;-64
2023/08/20 09:08:35;;;;;;;;;;;31.60;93.00;;;;;;5114402;28;19928;-64
2023/08/20 09:11:03;;;;;;;;;;;32.00;92.60;;;;;;5118021;28;19924;-64
2023/08/20 09:13:35;;;;;;;;;;;31.30;92.80;;;;;;5117885;28;19924;-64
2023/08/20 09:16:04;;;;;;;;;;;31.30;92.40;;;;;;5100529;28;20372;-64
2023/08/20 09:18:31;;;;;;;;;;;31.00;92.30;;;;;;5097505;28;19931;-65
2023/08/20 09:20:58;;;;;;;;;;;30.60;92.40;;;;;;5118677;28;20319;-65
2023/08/20 09:23:27;;;;;;;;;;;30.50;92.60;;;;;;5096159;27;19929;-65
2023/08/20 09:25:54;;;;;;;;;;;30.80;92.10;;;;;;5100025;28;20433;-65
2023/08/20 09:28:21;;;;;;;;;;;30.70;91.80;;;;;;5097860;28;19923;-64
2023/08/20 09:31:01;;;;;;;;;;;31.20;92.00;;;;;;5117837;28;19924;-67
2023/08/20 09:33:28;;;;;;;;;;;31.30;92.30;;;;;;5099648;28;19924;-64
2023/08/20 09:35:55;;;;;;;;;;;31.00;91.50;;;;;;5098999;28;19974;-64
2023/08/20 09:38:22;;;;;;;;;;;31.60;91.90;;;;;;5118414;28;19962;-64
2023/08/20 09:40:50;;;;;;;;;;;31.90;91.30;;;;;;5098928;28;20412;-64
2023/08/20 09:43:17;;;;;;;;;;;31.80;91.00;;;;;;5100273;28;19928;-64
2023/08/20 09:45:46;;;;;;;;;;;30.50;91.60;;;;;;5116624;28;19923;-65
2023/08/20 09:48:14;;;;;;;;;;;30.50;92.40;;;;;;5094729;28;20009;-65
2023/08/20 09:50:41;;;;;;;;;;;29.80;92.30;;;;;;5096522;28;19924;-64
2023/08/20 09:53:23;;;;;;;;;;;29.40;92.60;;;;;;5096553;28;19925;-64
2023/08/20 09:55:51;;;;;;;;;;;30.00;92.90;;;;;;5095318;28;19924;-64
2023/08/20 09:58:25;;;;;;;;;;;30.30;92.50;;;;;;5094142;28;21496;-64
2023/08/20 10:00:52;;;;;;;;;;;30.80;92.00;;;;;;5093414;28;20461;-65
2023/08/20 10:03:21;;;;;;;;;;;31.10;91.40;;;;;;5096603;28;19977;-64
2023/08/20 10:05:49;;;;;;;;;;;31.20;91.50;;;;;;5095572;28;19932;-65
2023/08/20 10:08:16;;;;;;;;;;;31.40;90.80;;;;;;5094213;28;19958;-64
2023/08/20 10:10:42;;;;;;;;;;;31.20;91.50;;;;;;5097835;28;19928;-64
2023/08/20 10:13:09;;;;;;;;;;;31.60;91.40;;;;;;5092859;28;19949;-66
2023/08/20 10:15:37;;;;;;;;;;;31.80;91.70;;;;;;5094850;28;20279;-65
2023/08/20 10:18:04;;;;;;;;;;;31.80;90.80;;;;;;5092774;28;19931;-65
2023/08/20 10:20:32;;;;;;;;;;;31.10;90.60;;;;;;5094429;28;19924;-64
2023/08/20 10:23:01;;;;;;;;;;;31.10;90.80;;;;;;5090151;28;19924;-65
2023/08/20 10:25:28;;;;;;;;;;;31.10;91.70;;;;;;5093218;28;19924;-65
2023/08/20 10:27:55;;;;;;;;;;;31.20;91.20;;;;;;5088384;28;20459;-65
2023/08/20 10:30:25;;;;;;;;;;;31.70;90.60;;;;;;5093675;28;19947;-66
2023/08/20 10:32:53;;;;;;;;;;;31.90;91.00;;;;;;5091952;28;19924;-65
2023/08/20 10:35:24;;;;;;;;;;;32.30;90.90;;;;;;5090398;28;19923;-65
2023/08/20 10:38:03;;;;;;;;;;;32.30;90.90;;;;;;5087408;28;19933;-64
2023/08/20 10:40:49;;;;;;;;;;;31.60;90.00;;;;;;5086999;28;19928;-65
2023/08/20 10:43:27;;;;;;;;;;;32.10;90.30;;;;;;5091810;28;19969;-66
2023/08/20 10:46:03;;;;;;;;;;;32.60;90.50;;;;;;5091667;28;19932;-65
2023/08/20 10:48:30;;;;;;;;;;;31.90;87.90;;;;;;5096821;28;19924;-64
2023/08/20 10:50:57;;;;;;;;;;;32.10;88.70;;;;;;5094718;28;19930;-65
2023/08/20 10:53:25;;;;;;;;;;;31.80;88.80;;;;;;5114088;28;20375;-65
2023/08/20 10:55:52;;;;;;;;;;;32.00;89.50;;;;;;5095242;28;20406;-66
2023/08/20 10:58:24;;;;;;;;;;;32.30;89.10;;;;;;5113756;28;19924;-65
2023/08/20 11:01:06;;;;;;;;;;;33.00;89.50;;;;;;5092743;28;19927;-65
2023/08/20 11:03:33;;;;;;;;;;;33.80;89.40;;;;;;5096111;28;19924;-66
2023/08/20 11:06:00;;;;;;;;;;;33.60;87.10;;;;;;5111733;28;20018;-65
2023/08/20 11:08:28;;;;;;;;;;;33.50;86.70;;;;;;5113866;28;20375;-65
2023/08/20 11:10:55;;;;;;;;;;;33.60;86.70;;;;;;5092973;28;19928;-65
2023/08/20 11:13:22;;;;;;;;;;;33.50;86.10;;;;;;5113566;28;20341;-65
2023/08/20 11:15:48;;;;;;;;;;;33.00;85.40;;;;;;5112629;28;19985;-65
2023/08/20 11:18:16;;;;;;;;;;;32.30;85.90;;;;;;5093387;28;20014;-64
2023/08/20 11:20:43;;;;;;;;;;;32.30;85.40;;;;;;5111623;28;19931;-64
2023/08/20 11:23:10;;;;;;;;;;;32.90;84.90;;;;;;5112591;28;19932;-64
2023/08/20 11:25:43;;;;;;;;;;;33.60;82.40;;;;;;5113131;28;19932;-64
2023/08/20 11:28:09;;;;;;;;;;;33.70;82.50;;;;;;5109742;28;19970;-64
2023/08/20 11:30:36;;;;;;;;;;;34.00;82.60;;;;;;5113290;28;19938;-65
2023/08/20 11:33:03;;;;;;;;;;;33.60;83.30;;;;;;5093663;28;19924;-64
2023/08/20 11:35:30;;;;;;;;;;;34.00;85.60;;;;;;5094499;28;19932;-64
2023/08/20 11:37:57;;;;;;;;;;;33.90;85.40;;;;;;5112173;28;19981;-64
2023/08/20 11:40:24;;;;;;;;;;;34.20;84.30;;;;;;5128413;27;19992;-64
2023/08/20 11:42:53;;;;;;;;;;;34.50;84.30;;;;;;5093399;28;19924;-64
2023/08/20 11:45:19;;;;;;;;;;;34.20;82.70;;;;;;5094881;28;20439;-64
2023/08/20 11:47:46;;;;;;;;;;;34.30;83.20;;;;;;5093861;28;19932;-64
2023/08/20 11:50:13;;;;;;;;;;;33.10;82.90;;;;;;5062788;28;19955;-65
2023/08/20 11:52:40;;;;;;;;;;;32.90;84.60;;;;;;5094359;28;20326;-65
2023/08/20 11:55:07;;;;;;;;;;;32.60;85.50;;;;;;5125400;27;19928;-65
2023/08/20 11:57:34;;;;;;;;;;;32.60;84.60;;;;;;5110971;28;20454;-65
2023/08/20 12:00:05;;;;;;;;;;;33.10;84.30;;;;;;5094448;28;19923;-64
2023/08/20 12:02:32;;;;;;;;;;;33.00;83.10;;;;;;5092754;28;19928;-65
2023/08/20 12:04:59;;;;;;;;;;;32.50;83.90;;;;;;5105986;28;19939;-65
2023/08/20 12:07:26;;;;;;;;;;;32.80;85.10;;;;;;5091124;28;19976;-64
2023/08/20 12:09:53;;;;;;;;;;;32.40;84.50;;;;;;5108233;28;19928;-65
2023/08/20 12:12:20;;;;;;;;;;;32.10;84.80;;;;;;5111595;28;19924;-65
2023/08/20 12:14:47;;;;;;;;;;;32.90;85.10;;;;;;5110436;28;19932;-65
2023/08/20 12:17:19;;;;;;;;;;;33.00;84.10;;;;;;5111542;28;19932;-66
2023/08/20 12:19:46;;;;;;;;;;;32.90;83.10;;;;;;5092511;28;19950;-65
2023/08/20 12:22:13;;;;;;;;;;;33.10;84.20;;;;;;5111008;28;19924;-65
2023/08/20 12:24:39;;;;;;;;;;;33.50;84.20;;;;;;5093142;28;19930;-65
2023/08/20 12:27:06;;;;;;;;;;;33.30;84.40;;;;;;5111847;28;19942;-64
2023/08/20 12:29:33;;;;;;;;;;;33.40;84.30;;;;;;5091216;28;19931;-65
2023/08/20 12:32:01;;;;;;;;;;;33.50;83.30;;;;;;5093167;28;19924;-64
2023/08/20 12:34:29;;;;;;;;;;;33.30;83.00;;;;;;5109004;28;19947;-65
2023/08/20 12:36:55;;;;;;;;;;;33.20;82.30;;;;;;5109251;28;20010;-65
2023/08/20 12:39:22;;;;;;;;;;;32.80;81.60;;;;;;5109206;28;19924;-66
2023/08/20 12:41:50;;;;;;;;;;;33.10;83.40;;;;;;5092545;28;19924;-65
2023/08/20 12:44:16;;;;;;;;;;;32.70;83.30;;;;;;5091144;28;20016;-66
2023/08/20 12:46:43;;;;;;;;;;;32.80;82.80;;;;;;5111071;28;19931;-65
2023/08/20 12:49:10;;;;;;;;;;;33.10;83.40;;;;;;5091163;28;19992;-65
2023/08/20 12:51:38;;;;;;;;;;;32.70;83.50;;;;;;5109530;28;19932;-65
2023/08/20 12:54:05;;;;;;;;;;;32.70;85.60;;;;;;5091395;28;19930;-65
2023/08/20 12:56:31;;;;;;;;;;;33.60;84.40;;;;;;5090784;28;19932;-65
2023/08/20 12:58:58;;;;;;;;;;;33.20;83.60;;;;;;5110100;28;19943;-65
2023/08/20 13:01:25;;;;;;;;;;;33.00;84.00;;;;;;5109027;28;19932;-65
2023/08/20 13:03:52;;;;;;;;;;;33.20;83.10;;;;;;5110407;28;19923;-65
2023/08/20 13:06:19;;;;;;;;;;;33.50;82.60;;;;;;5109743;28;19931;-65
2023/08/20 13:08:47;;;;;;;;;;;33.40;82.80;;;;;;5111203;28;19943;-65
2023/08/20 13:11:17;;;;;;;;;;;34.10;81.70;;;;;;5089586;28;19923;-65
2023/08/20 13:13:44;;;;;;;;;;;34.40;81.00;;;;;;5091469;28;19930;-65
2023/08/20 13:16:11;;;;;;;;;;;34.40;80.60;;;;;;5108988;28;19924;-65
2023/08/20 13:18:38;;;;;;;;;;;34.80;79.40;;;;;;5089852;28;19934;-65
2023/08/20 13:21:05;;;;;;;;;;;33.80;80.10;;;;;;5109404;28;19924;-64
2023/08/20 13:23:32;;;;;;;;;;;34.20;78.80;;;;;;5110661;28;19927;-65
2023/08/20 13:26:00;;;;;;;;;;;33.60;79.90;;;;;;5108161;28;19946;-65
2023/08/20 13:28:27;;;;;;;;;;;34.10;80.40;;;;;;5110420;28;19928;-65
2023/08/20 13:30:54;;;;;;;;;;;34.40;79.30;;;;;;5091323;28;19931;-64
2023/08/20 13:33:21;;;;;;;;;;;34.30;79.80;;;;;;5108487;28;19931;-66
2023/08/20 13:35:48;;;;;;;;;;;34.70;79.60;;;;;;5091445;28;19938;-65
2023/08/20 13:38:15;;;;;;;;;;;35.00;79.50;;;;;;5107984;28;19923;-66
2023/08/20 13:40:41;;;;;;;;;;;34.80;79.20;;;;;;5109662;28;19998;-64
2023/08/20 13:43:10;;;;;;;;;;;35.20;76.80;;;;;;5091367;28;19924;-64
2023/08/20 13:45:36;;;;;;;;;;;35.20;76.40;;;;;;5091959;28;20380;-64
2023/08/20 13:48:03;;;;;;;;;;;35.10;77.10;;;;;;5108274;28;19928;-64
2023/08/20 13:50:31;;;;;;;;;;;35.20;78.30;;;;;;5092960;28;20286;-64
2023/08/20 13:52:58;;;;;;;;;;;35.30;79.00;;;;;;5109597;28;19928;-65
2023/08/20 13:55:24;;;;;;;;;;;35.70;78.40;;;;;;5096298;28;19924;-64
2023/08/20 13:57:51;;;;;;;;;;;36.00;78.70;;;;;;5113527;28;19923;-65
2023/08/20 14:00:19;;;;;;;;;;;35.70;77.60;;;;;;5095571;28;19961;-65
2023/08/20 14:02:46;;;;;;;;;;;35.80;77.90;;;;;;5111149;28;19928;-65
2023/08/20 14:05:13;;;;;;;;;;;36.00;75.60;;;;;;5114336;28;20332;-64
2023/08/20 14:07:41;;;;;;;;;;;36.00;77.20;;;;;;5090637;28;20317;-64
2023/08/20 14:10:09;;;;;;;;;;;36.60;77.50;;;;;;5113545;28;19972;-65
2023/08/20 14:12:35;;;;;;;;;;;36.20;76.10;;;;;;5093677;28;19928;-65
2023/08/20 14:15:02;;;;;;;;;;;36.00;76.50;;;;;;5110541;28;20383;-65
2023/08/20 14:17:31;;;;;;;;;;;35.90;77.70;;;;;;5094547;28;19930;-65